Terminal Aerodrome Forecast
Issued by NWS

Home | Current Version | Previous Version | Text Only | Print | Product List | Glossary On
Versions: 1 2 3 4 5 6 7 8 9 10 11 12 13 14
000
FTUS44 KLIX 180540
TAFHUM
TAF
KHUM 180540Z 1806/1906 17004KT 3SM -SHRA BR BKN010
      TEMPO 1806/1810 1SM BR
     FM181000 VRB03KT 1SM SHRA BR BKN004
     FM181600 16004KT 3SM BR BKN005 PROB30 1816/1818 SHRA
     FM181800 18007KT P6SM BKN006 BKN025 PROB30 1818/1824 3/4SM
      -SHRA OVC003
     FM190000 12004KT P6SM BKN010 BKN020
     FM190100 13004KT 2SM BR BKN003 BKN025=

USA.gov is the U.S. government's official web portal to all federal, state and local government web resources and services.